createdAt,value
2024-02-13T00:00:58.932Z,98675.07
2024-02-13T00:03:03.820Z,98674.50
2024-02-13T00:05:09.825Z,98689.89
2024-02-13T00:07:15.089Z,98693.13
2024-02-13T00:09:19.864Z,98684.81
2024-02-13T00:11:24.570Z,98686.95
2024-02-13T00:13:29.235Z,98689.35
2024-02-13T00:15:34.110Z,98692.60
2024-02-13T00:17:38.830Z,98685.58
2024-02-13T00:19:43.960Z,98696.67
2024-02-13T00:21:48.756Z,98692.16
2024-02-13T00:23:53.572Z,98692.63
2024-02-13T00:25:58.267Z,98693.04
2024-02-13T00:28:03.056Z,98698.69
2024-02-13T00:30:09.320Z,98704.08
2024-02-13T00:32:13.990Z,98708.64
2024-02-13T00:34:18.672Z,98709.60
2024-02-13T00:36:23.273Z,98711.91
2024-02-13T00:38:28.107Z,98717.88
2024-02-13T00:40:33.227Z,98721.72
2024-02-13T00:42:38.445Z,98723.04
2024-02-13T00:44:44.971Z,98720.66
2024-02-13T00:46:50.044Z,98723.15
2024-02-13T00:48:55.595Z,98725.24
2024-02-13T00:51:00.394Z,98719.37
2024-02-13T00:53:05.218Z,98721.88
2024-02-13T00:55:10.507Z,98727.58
2024-02-13T00:57:15.224Z,98722.52
2024-02-13T00:59:19.989Z,98723.15
2024-02-13T01:01:24.746Z,98729.41
2024-02-13T01:03:29.429Z,98731.10
2024-02-13T01:05:34.154Z,98735.93
2024-02-13T01:07:38.901Z,98734.77
2024-02-13T01:09:43.550Z,98735.50
2024-02-13T01:11:48.783Z,98740.16
2024-02-13T01:13:53.550Z,98744.83
2024-02-13T01:15:58.446Z,98746.72
2024-02-13T01:18:03.183Z,98748.67
2024-02-13T01:20:10.459Z,98752.98
2024-02-13T01:22:15.232Z,98753.45
2024-02-13T01:24:19.977Z,98749.70
2024-02-13T01:26:24.749Z,98754.77
2024-02-13T01:28:29.355Z,98755.16
2024-02-13T01:30:34.019Z,98755.50
2024-02-13T01:32:38.678Z,98750.84
2024-02-13T01:34:43.971Z,98756.42
2024-02-13T01:36:48.764Z,98762.11
2024-02-13T01:38:53.464Z,98758.71
2024-02-13T01:40:58.337Z,98760.92
2024-02-13T01:43:03.106Z,98764.27
2024-02-13T01:45:10.148Z,98761.30
2024-02-13T01:47:15.121Z,98761.78
2024-02-13T01:49:20.367Z,98769.02
2024-02-13T01:51:28.660Z,98770.58
2024-02-13T01:53:34.692Z,98774.35
2024-02-13T01:55:40.200Z,98773.41
2024-02-13T01:57:45.530Z,98773.30
2024-02-13T01:59:50.469Z,98786.80
2024-02-13T02:01:55.716Z,98779.52
2024-02-13T02:04:03.461Z,98778.05
2024-02-13T02:06:08.645Z,98783.67
2024-02-13T02:08:13.487Z,98781.53
2024-02-13T02:10:18.413Z,98789.48
2024-02-13T02:12:23.238Z,98783.09
2024-02-13T02:14:27.978Z,98792.36
2024-02-13T02:16:32.671Z,98795.59
2024-02-13T02:18:37.749Z,98792.29
2024-02-13T02:20:42.567Z,98805.09
2024-02-13T02:22:47.444Z,98791.55
2024-02-13T02:24:52.069Z,98799.11
2024-02-13T02:26:56.749Z,98790.28
2024-02-13T02:29:01.396Z,98797.84
2024-02-13T02:31:06.479Z,98797.60
2024-02-13T02:33:12.650Z,98804.17
2024-02-13T02:35:17.750Z,98803.68
2024-02-13T02:37:22.489Z,98802.82
2024-02-13T02:39:30.165Z,98807.85
2024-02-13T02:41:34.790Z,98808.34
2024-02-13T02:43:42.407Z,98810.67
2024-02-13T02:45:47.545Z,98817.54
2024-02-13T02:47:52.316Z,98818.19
2024-02-13T02:49:56.940Z,98818.02
2024-02-13T02:52:01.677Z,98825.73
2024-02-13T02:54:07.117Z,98827.98
2024-02-13T02:56:12.725Z,98829.77
2024-02-13T02:58:17.393Z,98838.73
2024-02-13T03:00:23.013Z,98850.00
2024-02-13T03:02:27.719Z,98852.55
2024-02-13T03:04:32.413Z,98853.68
2024-02-13T03:06:37.147Z,98862.52
2024-02-13T03:08:41.884Z,98863.16
2024-02-13T03:10:46.570Z,98861.84
2024-02-13T03:12:51.431Z,98867.20
2024-02-13T03:14:56.136Z,98868.08
2024-02-13T03:17:00.847Z,98868.73
2024-02-13T03:19:06.134Z,98876.40
2024-02-13T03:21:10.930Z,98884.94
2024-02-13T03:23:15.563Z,98885.15
2024-02-13T03:25:20.253Z,98883.23
2024-02-13T03:27:24.950Z,98888.08
2024-02-13T03:29:29.586Z,98890.54
2024-02-13T03:31:34.314Z,98893.08
2024-02-13T03:33:41.821Z,98893.43
2024-02-13T03:35:47.472Z,98904.18
2024-02-13T03:37:52.196Z,98909.61
2024-02-13T03:39:56.812Z,98912.39
2024-02-13T03:42:01.618Z,98917.83
2024-02-13T03:44:06.351Z,98913.91
2024-02-13T03:46:11.107Z,98924.16
2024-02-13T03:48:16.422Z,98924.61
2024-02-13T03:50:21.351Z,98937.64
2024-02-13T03:52:26.070Z,98936.70
2024-02-13T03:54:30.774Z,98939.63
2024-02-13T03:56:35.568Z,98943.27
2024-02-13T03:58:40.769Z,98948.79
2024-02-13T04:00:45.473Z,98954.50
2024-02-13T04:02:50.227Z,98953.16
2024-02-13T04:04:54.870Z,98951.27
2024-02-13T04:06:59.501Z,98954.73
2024-02-13T04:09:04.503Z,98957.98
2024-02-13T04:11:09.385Z,98964.92
2024-02-13T04:13:14.081Z,98963.47
2024-02-13T04:15:18.753Z,98970.92
2024-02-13T04:17:23.406Z,98977.29
2024-02-13T04:19:28.079Z,98977.70
2024-02-13T04:21:32.741Z,98978.55
2024-02-13T04:23:37.542Z,98980.64
2024-02-13T04:25:42.214Z,98984.27
2024-02-13T04:27:47.011Z,98989.16
2024-02-13T04:29:51.642Z,98993.45
2024-02-13T04:31:56.415Z,98992.19
2024-02-13T04:34:01.314Z,98994.14
2024-02-13T04:36:07.132Z,98999.30
2024-02-13T04:38:11.960Z,99003.16
2024-02-13T04:40:16.691Z,99005.20
2024-02-13T04:42:33.173Z,98997.41
2024-02-13T04:44:37.862Z,99002.27
2024-02-13T04:46:42.587Z,99007.98
2024-02-13T04:48:47.300Z,99008.61
2024-02-13T04:50:52.020Z,99007.29
2024-02-13T04:52:56.696Z,99011.30
2024-02-13T04:55:01.435Z,99011.52
2024-02-13T04:57:06.503Z,99014.12
2024-02-13T04:59:11.248Z,99015.75
2024-02-13T05:01:16.144Z,99014.77
2024-02-13T05:03:22.176Z,99026.34
2024-02-13T05:05:28.397Z,99027.16
2024-02-13T05:07:33.207Z,99023.35
2024-02-13T05:09:40.244Z,99030.36
2024-02-13T05:11:44.913Z,99031.02
2024-02-13T05:13:49.579Z,99028.94
2024-02-13T05:15:54.250Z,99032.84
2024-02-13T05:17:58.972Z,99033.97
2024-02-13T05:20:03.996Z,99039.52
2024-02-13T05:22:08.683Z,99042.55
2024-02-13T05:24:13.352Z,99043.81
2024-02-13T05:26:18.362Z,99049.23
2024-02-13T05:28:23.048Z,99048.34
2024-02-13T05:30:27.660Z,99052.59
2024-02-13T05:32:32.422Z,99051.05
2024-02-13T05:34:37.793Z,99055.41
2024-02-13T05:36:42.425Z,99058.44
2024-02-13T05:38:47.332Z,99061.40
2024-02-13T05:40:52.034Z,99069.50
2024-02-13T05:42:56.694Z,99069.20
2024-02-13T05:45:01.356Z,99076.42
2024-02-13T05:47:06.414Z,99076.66
2024-02-13T05:49:11.127Z,99084.49
2024-02-13T05:51:15.781Z,99089.81
2024-02-13T05:53:20.587Z,99092.34
2024-02-13T05:55:25.241Z,99100.10
2024-02-13T05:57:29.823Z,99102.45
2024-02-13T05:59:34.464Z,99106.08
2024-02-13T06:01:39.214Z,99112.73
2024-02-13T06:03:43.894Z,99117.30
2024-02-13T06:05:51.162Z,99121.64
2024-02-13T06:07:56.821Z,99124.73
2024-02-13T06:10:01.651Z,99129.39
2024-02-13T06:12:07.648Z,99132.61
2024-02-13T06:14:12.375Z,99133.88
2024-02-13T06:16:17.262Z,99135.08
2024-02-13T06:18:22.682Z,99145.73
2024-02-13T06:20:27.521Z,99145.94
2024-02-13T06:22:32.133Z,99147.60
2024-02-13T06:24:36.826Z,99153.67
2024-02-13T06:26:41.454Z,99157.41
2024-02-13T06:28:46.106Z,99163.38
2024-02-13T06:30:50.799Z,99161.59
2024-02-13T06:32:55.573Z,99169.98
2024-02-13T06:35:00.290Z,99180.11
2024-02-13T06:37:05.160Z,99174.95
2024-02-13T06:39:09.755Z,99177.52
2024-02-13T06:41:14.394Z,99181.42
2024-02-13T06:43:19.857Z,99194.74
2024-02-13T06:45:24.486Z,99197.44
2024-02-13T06:47:29.255Z,99192.84
2024-02-13T06:49:34.197Z,99196.76
2024-02-13T06:51:38.891Z,99204.39
2024-02-13T06:53:43.717Z,99203.85
2024-02-13T06:55:48.466Z,99207.31
2024-02-13T06:57:53.206Z,99215.89
2024-02-13T06:59:57.985Z,99211.67
2024-02-13T07:02:02.723Z,99222.83
2024-02-13T07:04:07.553Z,99223.11
2024-02-13T07:06:12.397Z,99225.17
2024-02-13T07:08:17.300Z,99226.17
2024-02-13T07:10:22.386Z,99227.71
2024-02-13T07:12:27.140Z,99231.38
2024-02-13T07:14:31.839Z,99239.46
2024-02-13T07:16:41.027Z,99241.20
2024-02-13T07:18:46.283Z,99241.86
2024-02-13T07:20:51.706Z,99255.89
2024-02-13T07:22:56.478Z,99256.84
2024-02-13T07:25:01.324Z,99262.83
2024-02-13T07:27:06.886Z,99258.05
2024-02-13T07:29:11.701Z,99264.25
2024-02-13T07:31:16.790Z,99261.70
2024-02-13T07:33:21.617Z,99265.33
2024-02-13T07:35:26.506Z,99271.80
2024-02-13T07:37:31.203Z,99274.61
2024-02-13T07:39:36.021Z,99276.59
2024-02-13T07:41:40.765Z,99284.55
2024-02-13T07:43:45.565Z,99292.91
2024-02-13T07:45:50.313Z,99288.04
2024-02-13T07:47:55.439Z,99288.74
2024-02-13T07:50:03.169Z,99292.81
2024-02-13T07:52:08.249Z,99299.33
2024-02-13T07:54:13.093Z,99309.44
2024-02-13T07:56:18.286Z,99313.90
2024-02-13T07:58:23.561Z,99303.00
2024-02-13T08:00:28.449Z,99318.78
2024-02-13T08:02:33.590Z,99316.21
2024-02-13T08:04:38.508Z,99319.48
2024-02-13T08:06:43.437Z,99316.11
2024-02-13T08:08:48.780Z,99315.39
2024-02-13T08:10:53.813Z,99319.23
2024-02-13T08:12:58.532Z,99320.92
2024-02-13T08:15:03.484Z,99323.24
2024-02-13T08:17:08.278Z,99324.84
2024-02-13T08:19:13.310Z,99337.20
2024-02-13T08:21:18.416Z,99332.53
2024-02-13T08:23:23.449Z,99324.67
2024-02-13T08:25:28.470Z,99325.01
2024-02-13T08:27:33.556Z,99331.35
2024-02-13T08:29:38.367Z,99331.54
2024-02-13T08:31:43.108Z,99345.96
2024-02-13T08:33:49.414Z,99344.06
2024-02-13T08:35:54.400Z,99334.98
2024-02-13T08:37:59.372Z,99334.62
2024-02-13T08:40:08.772Z,99339.98
2024-02-13T08:42:13.886Z,99353.91
2024-02-13T08:44:18.762Z,99361.10
2024-02-13T08:46:23.648Z,99345.77
2024-02-13T08:48:28.639Z,99349.66
2024-02-13T08:50:34.088Z,99358.63
2024-02-13T08:52:39.100Z,99351.65
2024-02-13T08:54:52.964Z,99356.02
2024-02-13T08:57:01.081Z,99361.00
2024-02-13T08:59:06.070Z,99359.88
2024-02-13T09:01:11.246Z,99360.38
2024-02-13T09:03:17.164Z,99363.84
2024-02-13T09:05:22.469Z,99370.14
2024-02-13T09:07:27.519Z,99363.92
2024-02-13T09:09:33.201Z,99367.48
2024-02-13T09:11:37.944Z,99361.09
2024-02-13T09:13:42.771Z,99360.00
2024-02-13T09:15:48.388Z,99363.36
2024-02-13T09:17:53.747Z,99381.77
2024-02-13T09:19:58.934Z,99373.70
2024-02-13T09:22:03.901Z,99377.10
2024-02-13T09:24:09.632Z,99375.27
2024-02-13T09:26:14.572Z,99379.95
2024-02-13T09:28:20.097Z,99372.61
2024-02-13T09:30:25.078Z,99373.28
2024-02-13T09:32:29.959Z,99386.59
2024-02-13T09:34:35.172Z,99391.15
2024-02-13T09:36:40.607Z,99386.57
2024-02-13T09:38:45.696Z,99385.11
2024-02-13T09:40:50.618Z,99391.54
2024-02-13T09:42:55.529Z,99395.91
2024-02-13T09:45:00.938Z,99385.63
2024-02-13T09:47:07.229Z,99383.69
2024-02-13T09:49:15.896Z,99385.89
2024-02-13T09:51:22.095Z,99404.30
2024-02-13T09:53:29.158Z,99410.23
2024-02-13T09:55:34.898Z,99406.64
2024-02-13T09:57:41.852Z,99396.14
2024-02-13T09:59:46.905Z,99402.51
2024-02-13T10:01:51.846Z,99400.81
2024-02-13T10:03:56.792Z,99406.08
2024-02-13T10:06:02.026Z,99407.63
2024-02-13T10:08:07.685Z,99402.50
2024-02-13T10:10:13.489Z,99403.61
2024-02-13T10:12:19.737Z,99393.50
2024-02-13T10:14:24.801Z,99398.40
2024-02-13T10:16:30.418Z,99396.54
2024-02-13T10:18:35.390Z,99406.98
2024-02-13T10:20:40.744Z,99404.55
2024-02-13T10:22:49.109Z,99403.63
2024-02-13T10:24:56.416Z,99414.06
2024-02-13T10:27:01.653Z,99410.38
2024-02-13T10:29:06.866Z,99406.55
2024-02-13T10:31:11.996Z,99427.89
2024-02-13T10:33:17.144Z,99428.67
2024-02-13T10:35:24.085Z,99426.89
2024-02-13T10:37:30.309Z,99445.45
2024-02-13T10:39:36.920Z,99432.45
2024-02-13T10:41:45.500Z,99447.52
2024-02-13T10:43:53.867Z,99431.61
2024-02-13T10:45:59.825Z,99439.86
2024-02-13T10:48:12.653Z,99418.88
2024-02-13T10:50:18.611Z,99433.50
2024-02-13T10:52:24.609Z,99420.66
2024-02-13T10:54:30.552Z,99420.11
2024-02-13T10:56:38.096Z,99433.18
2024-02-13T10:58:44.423Z,99421.42
2024-02-13T11:00:50.745Z,99419.67
2024-02-13T11:02:56.316Z,99408.67
2024-02-13T11:05:03.995Z,99423.60
2024-02-13T11:07:10.356Z,99416.33
2024-02-13T11:09:15.448Z,99427.19
2024-02-13T11:11:23.888Z,99411.38
2024-02-13T11:13:29.087Z,99408.18
2024-02-13T11:15:34.170Z,99429.84
2024-02-13T11:17:47.387Z,99417.81
2024-02-13T11:19:57.522Z,99419.46
2024-02-13T11:22:02.812Z,99412.63
2024-02-13T11:24:08.562Z,99412.58
2024-02-13T11:26:19.638Z,99413.95
2024-02-13T11:28:24.663Z,99410.56
2024-02-13T11:30:30.825Z,99408.44
2024-02-13T11:32:37.801Z,99415.86
2024-02-13T11:34:44.025Z,99403.95
2024-02-13T11:36:50.380Z,99402.79
2024-02-13T11:38:56.019Z,99401.69
2024-02-13T11:41:00.824Z,99386.92
2024-02-13T11:43:05.999Z,99397.19
2024-02-13T11:45:21.639Z,99400.95
2024-02-13T11:47:27.185Z,99413.33
2024-02-13T11:49:32.793Z,99411.71
2024-02-13T11:51:38.707Z,99406.89
2024-02-13T11:53:44.130Z,99415.07
2024-02-13T11:55:49.250Z,99426.92
2024-02-13T11:57:54.204Z,99424.61
2024-02-13T12:00:00.220Z,99415.54
2024-02-13T12:02:10.248Z,99414.00
2024-02-13T12:04:16.548Z,99416.58
2024-02-13T12:06:21.530Z,99420.55
2024-02-13T12:08:29.730Z,99416.03
2024-02-13T12:10:35.473Z,99405.77
2024-02-13T12:12:40.631Z,99400.94
2024-02-13T12:14:46.021Z,99411.70
2024-02-13T12:16:51.267Z,99405.73
2024-02-13T12:18:59.796Z,99410.99
2024-02-13T12:21:05.184Z,99400.70
2024-02-13T12:23:11.030Z,99405.84
2024-02-13T12:25:19.668Z,99411.36
2024-02-13T12:27:24.728Z,99404.37
2024-02-13T12:29:29.678Z,99415.91
2024-02-13T12:31:34.586Z,99408.69
2024-02-13T12:33:39.802Z,99410.86
2024-02-13T12:35:44.648Z,99408.17
2024-02-13T12:37:50.590Z,99408.02
2024-02-13T12:39:55.428Z,99400.17
2024-02-13T12:42:00.264Z,99394.52
2024-02-13T12:44:05.739Z,99400.06
2024-02-13T12:46:10.738Z,99408.92
2024-02-13T12:48:15.982Z,99413.73
2024-02-13T12:50:21.383Z,99407.85
2024-02-13T12:52:26.498Z,99418.64
2024-02-13T12:54:33.728Z,99421.13
2024-02-13T12:56:39.298Z,99414.41
2024-02-13T12:58:44.302Z,99408.99
2024-02-13T13:00:49.799Z,99420.79
2024-02-13T13:02:55.007Z,99407.59
2024-02-13T13:05:00.010Z,99402.99
2024-02-13T13:07:05.462Z,99408.49
2024-02-13T13:09:20.193Z,99405.45
2024-02-13T13:11:31.592Z,99412.66
2024-02-13T13:13:36.788Z,99433.14
2024-02-13T13:15:42.175Z,99402.23
2024-02-13T13:17:47.389Z,99403.64
2024-02-13T13:19:53.146Z,99413.98
2024-02-13T13:21:58.573Z,99411.65
2024-02-13T13:24:03.905Z,99418.86
2024-02-13T13:26:09.138Z,99417.15
2024-02-13T13:28:14.586Z,99415.86
2024-02-13T13:30:21.662Z,99419.81
2024-02-13T13:32:26.926Z,99416.27
2024-02-13T13:34:31.982Z,99414.17
2024-02-13T13:36:39.264Z,99420.46
2024-02-13T13:38:44.394Z,99414.75
2024-02-13T13:40:49.765Z,99420.98
2024-02-13T13:42:54.907Z,99418.39
2024-02-13T13:45:00.004Z,99427.77
2024-02-13T13:47:05.791Z,99440.73
2024-02-13T13:49:10.924Z,99438.40
2024-02-13T13:51:15.967Z,99438.86
2024-02-13T13:53:21.517Z,99446.34
2024-02-13T13:55:26.681Z,99451.80
2024-02-13T13:57:31.756Z,99435.70
2024-02-13T13:59:39.721Z,99436.18
2024-02-13T14:01:44.736Z,99452.17
2024-02-13T14:03:50.096Z,99439.08
2024-02-13T14:05:55.244Z,99440.14
2024-02-13T14:08:00.676Z,99444.52
2024-02-13T14:10:06.561Z,99442.35
2024-02-13T14:12:11.606Z,99450.44
2024-02-13T14:14:22.303Z,99453.27
2024-02-13T14:16:27.221Z,99455.23
2024-02-13T14:18:34.289Z,99454.32
2024-02-13T14:20:39.672Z,99447.23
2024-02-13T14:22:46.291Z,99449.39
2024-02-13T14:24:51.268Z,99456.45
2024-02-13T14:26:56.265Z,99451.94
2024-02-13T14:29:01.340Z,99468.02
2024-02-13T14:31:06.717Z,99469.93
2024-02-13T14:33:12.741Z,99471.80
2024-02-13T14:35:18.267Z,99470.93
2024-02-13T14:37:23.409Z,99468.91
2024-02-13T14:39:28.585Z,99479.70
2024-02-13T14:41:33.817Z,99473.87
2024-02-13T14:43:38.817Z,99474.39
2024-02-13T14:45:43.888Z,99477.39
2024-02-13T14:47:49.224Z,99489.30
2024-02-13T14:49:54.871Z,99481.80
2024-02-13T14:52:00.246Z,99491.92
2024-02-13T14:54:05.981Z,99502.14
2024-02-13T14:56:10.970Z,99490.35
2024-02-13T14:58:22.917Z,99487.52
2024-02-13T15:00:35.957Z,99496.09
2024-02-13T15:02:41.352Z,99495.09
2024-02-13T15:04:46.736Z,99487.61
2024-02-13T15:06:51.794Z,99489.15
2024-02-13T15:08:56.730Z,99496.70
2024-02-13T15:11:01.855Z,99496.42
2024-02-13T15:13:07.059Z,99499.92
2024-02-13T15:15:12.488Z,99510.70
2024-02-13T15:17:17.522Z,99507.62
2024-02-13T15:19:22.633Z,99517.43
2024-02-13T15:21:27.798Z,99514.75
2024-02-13T15:23:33.091Z,99512.98
2024-02-13T15:25:37.938Z,99512.66
2024-02-13T15:27:43.155Z,99514.34
2024-02-13T15:29:48.177Z,99508.67
2024-02-13T15:31:53.174Z,99521.52
2024-02-13T15:33:58.632Z,99519.67
2024-02-13T15:36:04.519Z,99523.71
2024-02-13T15:38:09.780Z,99519.40
2024-02-13T15:40:15.871Z,99524.94
2024-02-13T15:42:21.313Z,99520.34
2024-02-13T15:44:26.300Z,99524.48
2024-02-13T15:46:31.769Z,99543.53
2024-02-13T15:48:36.739Z,99536.67
2024-02-13T15:50:41.870Z,99535.20
2024-02-13T15:52:46.881Z,99534.06
2024-02-13T15:54:51.872Z,99536.15
2024-02-13T15:56:56.941Z,99547.39
2024-02-13T15:59:01.926Z,99544.31
2024-02-13T16:01:06.818Z,99543.14
2024-02-13T16:03:11.572Z,99542.52
2024-02-13T16:05:16.412Z,99547.90
2024-02-13T16:07:21.627Z,99544.91
2024-02-13T16:09:26.842Z,99550.84
2024-02-13T16:11:31.843Z,99551.14
2024-02-13T16:13:36.757Z,99549.85
2024-02-13T16:15:41.555Z,99550.21
2024-02-13T16:17:46.712Z,99554.60
2024-02-13T16:19:51.822Z,99548.10
2024-02-13T16:21:56.568Z,99555.00
2024-02-13T16:24:02.285Z,99560.77
2024-02-13T16:26:07.504Z,99564.33
2024-02-13T16:28:12.385Z,99564.05
2024-02-13T16:30:18.683Z,99563.41
2024-02-13T16:32:32.867Z,99573.96
2024-02-13T16:34:44.276Z,99573.98
2024-02-13T16:36:49.116Z,99573.33
2024-02-13T16:38:54.166Z,99575.52
2024-02-13T16:40:59.189Z,99581.73
2024-02-13T16:43:05.372Z,99592.96
2024-02-13T16:45:11.036Z,99596.02
2024-02-13T16:47:15.963Z,99596.34
2024-02-13T16:49:21.124Z,99599.19
2024-02-13T16:51:25.993Z,99605.98
2024-02-13T16:53:30.670Z,99613.23
2024-02-13T16:55:35.438Z,99611.66
2024-02-13T16:57:40.170Z,99614.25
2024-02-13T16:59:45.843Z,99613.83
2024-02-13T17:01:53.270Z,99617.23
2024-02-13T17:03:58.100Z,99619.91
2024-02-13T17:06:03.035Z,99616.95
2024-02-13T17:08:08.856Z,99619.79
2024-02-13T17:10:14.258Z,99621.96
2024-02-13T17:12:19.032Z,99625.69
2024-02-13T17:14:23.801Z,99628.15
2024-02-13T17:16:28.554Z,99630.83
2024-02-13T17:18:33.479Z,99634.64
2024-02-13T17:20:38.381Z,99640.59
2024-02-13T17:22:43.538Z,99638.92
2024-02-13T17:24:48.501Z,99645.33
2024-02-13T17:26:53.257Z,99647.98
2024-02-13T17:28:57.950Z,99650.10
2024-02-13T17:31:02.698Z,99651.19
2024-02-13T17:33:07.701Z,99651.21
2024-02-13T17:35:12.994Z,99651.97
2024-02-13T17:37:17.752Z,99656.79
2024-02-13T17:39:22.729Z,99658.61
2024-02-13T17:41:27.453Z,99658.00
2024-02-13T17:43:32.229Z,99660.81
2024-02-13T17:45:37.100Z,99659.54
2024-02-13T17:47:41.963Z,99656.19
2024-02-13T17:49:46.822Z,99660.09
2024-02-13T17:51:51.560Z,99660.92
2024-02-13T17:53:56.467Z,99659.63
2024-02-13T17:56:01.308Z,99663.11
2024-02-13T17:58:06.354Z,99659.02
2024-02-13T18:00:14.067Z,99665.02
2024-02-13T18:02:18.744Z,99662.04
2024-02-13T18:04:26.645Z,99666.93
2024-02-13T18:06:31.483Z,99664.71
2024-02-13T18:08:36.491Z,99668.82
2024-02-13T18:10:41.536Z,99673.13
2024-02-13T18:12:46.393Z,99671.14
2024-02-13T18:14:51.205Z,99672.00
2024-02-13T18:16:55.929Z,99678.66
2024-02-13T18:19:00.905Z,99680.23
2024-02-13T18:21:06.355Z,99686.07
2024-02-13T18:23:11.344Z,99688.28
2024-02-13T18:25:16.302Z,99687.61
2024-02-13T18:27:21.181Z,99684.13
2024-02-13T18:29:25.919Z,99683.20
2024-02-13T18:31:31.046Z,99685.09
2024-02-13T18:33:35.919Z,99686.72
2024-02-13T18:35:41.512Z,99687.85
2024-02-13T18:37:46.311Z,99687.98
2024-02-13T18:39:51.135Z,99692.95
2024-02-13T18:41:55.980Z,99694.74
2024-02-13T18:44:00.721Z,99697.17
2024-02-13T18:46:05.626Z,99698.62
2024-02-13T18:48:11.122Z,99702.85
2024-02-13T18:50:16.204Z,99703.15
2024-02-13T18:52:21.003Z,99708.54
2024-02-13T18:54:25.739Z,99713.29
2024-02-13T18:56:32.472Z,99713.55
2024-02-13T18:58:40.164Z,99712.67
2024-02-13T19:00:44.924Z,99709.60
2024-02-13T19:02:49.804Z,99710.81
2024-02-13T19:04:54.547Z,99713.97
2024-02-13T19:06:59.378Z,99718.35
2024-02-13T19:09:04.470Z,99722.17
2024-02-13T19:11:09.293Z,99723.58
2024-02-13T19:13:14.147Z,99732.56
2024-02-13T19:15:18.927Z,99736.13
2024-02-13T19:17:23.702Z,99735.30
2024-02-13T19:19:28.559Z,99735.73
2024-02-13T19:21:33.432Z,99744.86
2024-02-13T19:23:38.133Z,99742.60
2024-02-13T19:25:42.839Z,99744.67
2024-02-13T19:27:47.499Z,99749.79
2024-02-13T19:29:52.615Z,99751.26
2024-02-13T19:31:57.326Z,99754.07
2024-02-13T19:34:02.335Z,99755.97
2024-02-13T19:36:08.102Z,99756.52
2024-02-13T19:38:12.972Z,99757.47
2024-02-13T19:40:18.416Z,99759.77
2024-02-13T19:42:23.151Z,99763.11
2024-02-13T19:44:27.983Z,99765.27
2024-02-13T19:46:32.672Z,99768.02
2024-02-13T19:48:37.605Z,99768.56
2024-02-13T19:50:42.516Z,99769.83
2024-02-13T19:52:47.441Z,99771.56
2024-02-13T19:54:52.285Z,99773.14
2024-02-13T19:56:59.964Z,99775.33
2024-02-13T19:59:05.953Z,99777.73
2024-02-13T20:01:12.110Z,99776.77
2024-02-13T20:03:17.082Z,99779.34
2024-02-13T20:05:22.273Z,99781.56
2024-02-13T20:07:27.062Z,99787.68
2024-02-13T20:09:31.782Z,99787.66
2024-02-13T20:11:36.658Z,99789.88
2024-02-13T20:13:41.392Z,99788.36
2024-02-13T20:15:46.091Z,99790.92
2024-02-13T20:17:51.137Z,99791.70
2024-02-13T20:19:56.051Z,99794.09
2024-02-13T20:22:00.895Z,99796.33
2024-02-13T20:24:06.259Z,99792.90
2024-02-13T20:26:11.287Z,99795.33
2024-02-13T20:28:16.374Z,99794.27
2024-02-13T20:30:21.310Z,99792.99
2024-02-13T20:32:26.106Z,99793.67
2024-02-13T20:34:32.093Z,99793.85
2024-02-13T20:36:36.805Z,99791.94
2024-02-13T20:38:41.602Z,99790.58
2024-02-13T20:40:46.383Z,99790.58
2024-02-13T20:42:51.021Z,99790.95
2024-02-13T20:45:01.294Z,99788.74
2024-02-13T20:47:11.660Z,99790.63
2024-02-13T20:49:16.468Z,99792.35
2024-02-13T20:51:21.137Z,99793.45
2024-02-13T20:53:25.917Z,99792.09
2024-02-13T20:55:30.684Z,99792.59
2024-02-13T20:57:35.478Z,99792.53
2024-02-13T20:59:40.240Z,99794.91
2024-02-13T21:01:44.930Z,99796.27
2024-02-13T21:03:49.684Z,99796.34
2024-02-13T21:05:54.627Z,99801.32
2024-02-13T21:07:59.424Z,99799.13
2024-02-13T21:10:04.590Z,99806.02
2024-02-13T21:12:09.905Z,99816.19
2024-02-13T21:14:14.698Z,99814.50
2024-02-13T21:16:19.388Z,99816.84
2024-02-13T21:18:24.411Z,99816.13
2024-02-13T21:20:32.564Z,99815.95
2024-02-13T21:22:37.395Z,99816.20
2024-02-13T21:24:42.178Z,99812.69
2024-02-13T21:26:46.933Z,99807.55
2024-02-13T21:28:51.831Z,99805.54
2024-02-13T21:30:56.547Z,99807.86
2024-02-13T21:33:01.384Z,99805.40
2024-02-13T21:35:07.134Z,99801.95
2024-02-13T21:37:12.637Z,99806.40
2024-02-13T21:39:17.331Z,99803.81
2024-02-13T21:41:22.524Z,99806.45
2024-02-13T21:43:27.246Z,99805.36
2024-02-13T21:45:31.977Z,99811.09
2024-02-13T21:47:36.654Z,99813.40
2024-02-13T21:49:41.359Z,99810.59
2024-02-13T21:51:46.025Z,99814.02
2024-02-13T21:53:50.769Z,99812.90
2024-02-13T21:55:55.419Z,99815.58
2024-02-13T21:58:00.157Z,99816.09
2024-02-13T22:00:06.412Z,99816.66
2024-02-13T22:02:11.458Z,99820.00
2024-02-13T22:04:19.261Z,99818.03
2024-02-13T22:06:24.202Z,99822.09
2024-02-13T22:08:28.903Z,99823.13
2024-02-13T22:10:33.557Z,99826.57
2024-02-13T22:12:38.346Z,99827.67
2024-02-13T22:14:43.080Z,99823.38
2024-02-13T22:16:47.726Z,99825.67
2024-02-13T22:18:52.456Z,99824.58
2024-02-13T22:20:57.326Z,99824.23
2024-02-13T22:23:02.062Z,99822.89
2024-02-13T22:25:07.609Z,99826.39
2024-02-13T22:27:12.400Z,99822.63
2024-02-13T22:29:17.576Z,99825.73
2024-02-13T22:31:22.238Z,99827.00
2024-02-13T22:33:27.127Z,99827.37
2024-02-13T22:35:31.867Z,99823.98
2024-02-13T22:37:36.518Z,99827.88
2024-02-13T22:39:43.530Z,99825.57
2024-02-13T22:41:49.531Z,99826.50
2024-02-13T22:43:54.426Z,99826.48
2024-02-13T22:45:59.157Z,99824.55
2024-02-13T22:48:04.661Z,99821.17
2024-02-13T22:50:10.957Z,99824.74
2024-02-13T22:52:15.643Z,99824.55
2024-02-13T22:54:20.975Z,99826.59
2024-02-13T22:56:26.161Z,99828.23
2024-02-13T22:58:31.101Z,99831.75
2024-02-13T23:00:35.751Z,99832.48
2024-02-13T23:02:43.170Z,99830.39
2024-02-13T23:04:48.005Z,99834.80
2024-02-13T23:06:52.684Z,99833.89
2024-02-13T23:08:57.417Z,99836.92
2024-02-13T23:11:02.097Z,99839.02
2024-02-13T23:13:06.880Z,99839.56
2024-02-13T23:15:12.723Z,99832.04
2024-02-13T23:17:17.545Z,99838.86
2024-02-13T23:19:22.367Z,99836.15
2024-02-13T23:21:27.009Z,99834.57
2024-02-13T23:23:31.679Z,99834.42
2024-02-13T23:25:36.531Z,99831.45
2024-02-13T23:27:41.182Z,99828.77
2024-02-13T23:29:45.988Z,99830.45
2024-02-13T23:31:50.722Z,99833.96
2024-02-13T23:33:55.802Z,99832.63
2024-02-13T23:36:00.774Z,99835.86
2024-02-13T23:38:08.851Z,99833.55
2024-02-13T23:40:18.091Z,99838.60
2024-02-13T23:42:22.727Z,99838.74
2024-02-13T23:44:27.392Z,99843.89
2024-02-13T23:46:32.126Z,99845.00
2024-02-13T23:48:36.935Z,99848.97
2024-02-13T23:50:41.819Z,99846.42
2024-02-13T23:52:46.719Z,99848.38
2024-02-13T23:54:51.406Z,99844.38
2024-02-13T23:56:56.266Z,99846.90
2024-02-13T23:59:00.983Z,99847.90
